CST,Max TemperatureF,Mean TemperatureF,Min TemperatureF,Max Dew PointF,MeanDew PointF,Min DewpointF,Max Humidity, Mean Humidity, Min Humidity, Max Sea Level PressureIn, Mean Sea Level PressureIn, Min Sea Level PressureIn, Max VisibilityMiles, Mean VisibilityMiles, Min VisibilityMiles, Max Wind SpeedMPH, Mean Wind SpeedMPH, Max Gust SpeedMPH,PrecipitationIn, CloudCover, Events, WindDirDegrees
2012-11-1,80,58,37,36,29,21,75,40,13,30.14,30.07,29.99,10,10,3,18,9,25,0.00,0,,237
2012-11-2,82,63,44,36,27,16,71,35,9,30.05,29.98,29.92,10,10,10,18,10,47,0.00,0,,271
2012-11-3,64,52,41,36,33,30,76,56,30,30.24,30.18,30.06,10,10,10,14,8,18,0.00,0,,69
2012-11-4,73,52,32,41,33,25,93,59,16,30.24,30.18,30.08,10,10,7,15,4,17,0.00,0,,271
2012-11-5,68,52,35,34,31,28,81,50,24,30.29,30.22,30.17,10,10,2,17,8,23,0.00,0,,352
2012-11-6,77,55,33,32,31,28,81,49,18,30.24,30.20,30.16,10,10,7,15,5,26,0.00,0,,47
2012-11-7,78,56,35,36,32,28,81,43,16,30.24,30.11,30.00,10,10,7,22,7,32,0.00,0,,202
2012-11-8,82,62,42,32,28,23,61,32,11,30.00,29.95,29.90,10,9,2,23,11,31,0.00,0,,236
2012-11-9,77,62,48,46,34,28,72,38,18,29.93,29.88,29.82,10,10,3,30,13,37,0.00,1,Rain,239
2012-11-10,75,60,44,52,41,30,94,57,21,29.91,29.77,29.65,10,9,4,33,14,47,0.07,3,Rain-Thunderstorm,226
2012-11-11,50,39,26,28,22,18,74,50,28,30.29,30.02,29.84,10,10,10,21,12,31,0.00,3,,332
2012-11-12,51,34,17,19,10,0,86,46,12,30.45,30.38,30.29,10,10,10,14,4,25,0.00,0,,229
2012-11-13,57,39,21,19,16,12,69,44,21,30.41,30.30,30.18,10,10,7,24,8,34,0.00,0,,205
2012-11-14,64,44,24,25,18,14,74,42,14,30.35,30.26,30.17,10,10,10,23,9,25,0.00,0,,234
2012-11-15,62,47,32,23,21,18,69,45,20,30.36,30.24,30.14,10,10,10,21,8,34,0.00,0,,357
2012-11-16,60,44,28,36,27,21,76,56,23,30.38,30.32,30.25,10,10,10,26,9,28,0.00,0,,182
2012-11-17,62,48,35,43,39,32,93,69,45,30.29,30.21,30.14,10,10,10,21,11,26,0.00,2,,192
2012-11-18,64,54,44,50,43,37,87,72,37,30.14,30.10,30.06,10,10,10,23,12,30,0.00,1,Rain,223
2012-11-19,71,52,33,45,33,21,93,59,16,30.24,30.17,30.11,10,10,5,24,12,25,0.00,0,,315
2012-11-20,71,50,28,32,24,18,81,45,14,30.31,30.25,30.21,10,10,10,17,9,25,0.00,0,,210
2012-11-21,71,50,30,43,33,21,70,51,29,30.25,30.16,30.04,10,10,10,20,9,31,0.00,0,,213
2012-11-22,73,58,42,43,32,18,87,47,13,30.37,30.09,29.98,10,10,10,30,15,40,0.00,0,,338
2012-11-23,51,38,26,30,21,16,80,50,26,30.59,30.49,30.37,10,10,7,21,9,31,0.00,0,,22
2012-11-24,66,46,26,27,19,14,69,37,17,30.41,30.16,29.95,10,10,2,24,12,32,0.00,0,,235
2012-11-25,68,48,28,27,20,16,69,39,15,29.95,29.89,29.85,10,10,10,25,10,24,0.00,0,,296
2012-11-26,50,36,23,28,23,16,80,59,40,30.43,30.15,29.86,10,10,10,26,16,48,0.00,0,,4
2012-11-27,60,38,17,27,21,14,86,59,25,30.44,30.31,30.21,10,10,4,26,10,26,0.00,0,,260
2012-11-28,71,50,30,27,21,16,75,43,12,30.27,30.20,30.13,10,10,4,25,12,36,0.00,0,,254
2012-11-29,71,53,35,32,27,21,70,43,15,30.14,30.06,30.00,10,10,5,23,11,31,0.00,0,,262
2012-11-30,73,52,32,28,23,19,65,38,15,30.09,30.02,29.96,10,10,5,28,13,32,0.00,0,,272